sensor_id;sensor_type;location;lat;lon;timestamp;pressure;altitude;pressure_sealevel;temperature;humidity
63554;BME280;49699;48.072;7.800;2023-03-14T00:01:17;97929.19;;;10.76;76.44
63554;BME280;49699;48.072;7.800;2023-03-14T00:03:43;97934.97;;;10.80;76.01
63554;BME280;49699;48.072;7.800;2023-03-14T00:06:09;97952.09;;;10.83;75.55
63554;BME280;49699;48.072;7.800;2023-03-14T00:08:35;97951.88;;;10.86;74.96
63554;BME280;49699;48.072;7.800;2023-03-14T00:11:05;97973.28;;;10.89;74.76
63554;BME280;49699;48.072;7.800;2023-03-14T00:13:30;97970.41;;;10.92;74.33
63554;BME280;49699;48.072;7.800;2023-03-14T00:16:01;97989.19;;;10.96;73.97
63554;BME280;49699;48.072;7.800;2023-03-14T00:18:26;97983.72;;;10.99;73.37
63554;BME280;49699;48.072;7.800;2023-03-14T00:20:51;97987.03;;;11.01;72.92
63554;BME280;49699;48.072;7.800;2023-03-14T00:23:17;97996.25;;;11.05;72.45
63554;BME280;49699;48.072;7.800;2023-03-14T00:25:42;98008.09;;;11.09;72.23
63554;BME280;49699;48.072;7.800;2023-03-14T00:28:07;97993.72;;;11.14;71.82
63554;BME280;49699;48.072;7.800;2023-03-14T00:30:33;97996.75;;;11.20;71.52
63554;BME280;49699;48.072;7.800;2023-03-14T00:32:59;98004.09;;;11.26;70.83
63554;BME280;49699;48.072;7.800;2023-03-14T00:35:24;98014.66;;;11.34;70.14
63554;BME280;49699;48.072;7.800;2023-03-14T00:37:52;98001.28;;;11.38;69.81
63554;BME280;49699;48.072;7.800;2023-03-14T00:40:17;98004.31;;;11.43;69.55
63554;BME280;49699;48.072;7.800;2023-03-14T00:42:42;98009.41;;;11.45;69.69
63554;BME280;49699;48.072;7.800;2023-03-14T00:45:07;98008.47;;;11.46;69.73
63554;BME280;49699;48.072;7.800;2023-03-14T00:47:33;97992.84;;;11.46;69.62
63554;BME280;49699;48.072;7.800;2023-03-14T00:49:59;97984.03;;;11.47;69.58
63554;BME280;49699;48.072;7.800;2023-03-14T00:52:24;97990.06;;;11.47;69.43
63554;BME280;49699;48.072;7.800;2023-03-14T00:54:49;97985.69;;;11.48;69.13
63554;BME280;49699;48.072;7.800;2023-03-14T00:57:15;97960.47;;;11.48;69.31
63554;BME280;49699;48.072;7.800;2023-03-14T00:59:40;97952.09;;;11.45;69.10
63554;BME280;49699;48.072;7.800;2023-03-14T01:02:06;97951.41;;;11.43;69.04
63554;BME280;49699;48.072;7.800;2023-03-14T01:04:31;97952.47;;;11.40;69.06
63554;BME280;49699;48.072;7.800;2023-03-14T01:06:56;97947.41;;;11.39;68.52
63554;BME280;49699;48.072;7.800;2023-03-14T01:09:22;97956.28;;;11.36;68.41
63554;BME280;49699;48.072;7.800;2023-03-14T01:11:47;97955.47;;;11.36;68.40
63554;BME280;49699;48.072;7.800;2023-03-14T01:14:14;97953.25;;;11.31;68.39
63554;BME280;49699;48.072;7.800;2023-03-14T01:16:39;97960.22;;;11.31;68.44
63554;BME280;49699;48.072;7.800;2023-03-14T01:19:05;97951.59;;;11.30;68.03
63554;BME280;49699;48.072;7.800;2023-03-14T01:21:31;97970.78;;;11.29;68.13
63554;BME280;49699;48.072;7.800;2023-03-14T01:23:58;97970.09;;;11.27;68.19
63554;BME280;49699;48.072;7.800;2023-03-14T01:26:25;97970.09;;;11.27;68.26
63554;BME280;49699;48.072;7.800;2023-03-14T01:28:51;97956.38;;;11.25;68.57
63554;BME280;49699;48.072;7.800;2023-03-14T01:31:17;97961.59;;;11.25;68.66
63554;BME280;49699;48.072;7.800;2023-03-14T01:33:43;97970.34;;;11.24;68.48
63554;BME280;49699;48.072;7.800;2023-03-14T01:36:08;97955.81;;;11.22;68.44
63554;BME280;49699;48.072;7.800;2023-03-14T01:38:35;97952.63;;;11.18;68.41
63554;BME280;49699;48.072;7.800;2023-03-14T01:41:01;97950.41;;;11.13;68.94
63554;BME280;49699;48.072;7.800;2023-03-14T01:43:27;97933.66;;;11.06;69.31
63554;BME280;49699;48.072;7.800;2023-03-14T01:48:21;97929.56;;;10.93;70.03
63554;BME280;49699;48.072;7.800;2023-03-14T01:50:46;97917.91;;;10.87;70.12
63554;BME280;49699;48.072;7.800;2023-03-14T01:53:12;97913.19;;;10.81;70.18
63554;BME280;49699;48.072;7.800;2023-03-14T01:55:38;97929.63;;;10.82;69.38
63554;BME280;49699;48.072;7.800;2023-03-14T01:58:03;97921.13;;;10.79;69.24
63554;BME280;49699;48.072;7.800;2023-03-14T02:00:30;97933.44;;;10.77;69.14
63554;BME280;49699;48.072;7.800;2023-03-14T02:02:56;97925.91;;;10.74;69.14
63554;BME280;49699;48.072;7.800;2023-03-14T02:05:27;97936.31;;;10.74;69.13
63554;BME280;49699;48.072;7.800;2023-03-14T02:07:59;97932.31;;;10.70;69.47
63554;BME280;49699;48.072;7.800;2023-03-14T02:10:32;97929.00;;;10.68;69.47
63554;BME280;49699;48.072;7.800;2023-03-14T02:13:01;97928.31;;;10.66;69.61
63554;BME280;49699;48.072;7.800;2023-03-14T02:15:40;97923.22;;;10.65;69.51
63554;BME280;49699;48.072;7.800;2023-03-14T02:18:12;97919.78;;;10.64;69.43
63554;BME280;49699;48.072;7.800;2023-03-14T02:21:00;97904.88;;;10.66;69.63
63554;BME280;49699;48.072;7.800;2023-03-14T02:26:06;97904.88;;;10.66;69.31
63554;BME280;49699;48.072;7.800;2023-03-14T02:28:34;97899.44;;;10.69;69.14
63554;BME280;49699;48.072;7.800;2023-03-14T02:31:01;97891.50;;;10.71;68.98
63554;BME280;49699;48.072;7.800;2023-03-14T02:33:30;97882.63;;;10.73;68.64
63554;BME280;49699;48.072;7.800;2023-03-14T02:35:57;97865.06;;;10.75;68.58
63554;BME280;49699;48.072;7.800;2023-03-14T02:38:29;97868.50;;;10.76;68.22
63554;BME280;49699;48.072;7.800;2023-03-14T02:40:58;97863.31;;;10.76;68.05
63554;BME280;49699;48.072;7.800;2023-03-14T02:43:24;97857.97;;;10.77;67.87
63554;BME280;49699;48.072;7.800;2023-03-14T02:45:56;97847.56;;;10.77;67.73
63554;BME280;49699;48.072;7.800;2023-03-14T02:48:26;97846.63;;;10.78;67.37
63554;BME280;49699;48.072;7.800;2023-03-14T02:50:54;97827.44;;;10.79;67.23
63554;BME280;49699;48.072;7.800;2023-03-14T02:53:21;97830.03;;;10.79;67.48
63554;BME280;49699;48.072;7.800;2023-03-14T02:55:48;97831.69;;;10.81;66.89
63554;BME280;49699;48.072;7.800;2023-03-14T02:58:16;97826.38;;;10.82;66.57
63554;BME280;49699;48.072;7.800;2023-03-14T03:00:43;97822.13;;;10.81;66.87
63554;BME280;49699;48.072;7.800;2023-03-14T03:03:10;97817.59;;;10.83;66.52
63554;BME280;49699;48.072;7.800;2023-03-14T03:05:36;97802.00;;;10.83;66.06
63554;BME280;49699;48.072;7.800;2023-03-14T03:08:01;97800.34;;;10.82;65.77
63554;BME280;49699;48.072;7.800;2023-03-14T03:10:27;97802.94;;;10.82;65.57
63554;BME280;49699;48.072;7.800;2023-03-14T03:12:53;97785.44;;;10.84;65.71
63554;BME280;49699;48.072;7.800;2023-03-14T03:15:21;97800.22;;;10.84;65.61
63554;BME280;49699;48.072;7.800;2023-03-14T03:17:47;97795.13;;;10.82;65.56
63554;BME280;49699;48.072;7.800;2023-03-14T03:20:12;97794.31;;;10.82;65.50
63554;BME280;49699;48.072;7.800;2023-03-14T03:22:38;97800.34;;;10.82;65.27
63554;BME280;49699;48.072;7.800;2023-03-14T03:25:04;97794.19;;;10.83;64.87
63554;BME280;49699;48.072;7.800;2023-03-14T03:27:30;97777.06;;;10.81;64.97
63554;BME280;49699;48.072;7.800;2023-03-14T03:29:57;97799.66;;;10.80;64.86
63554;BME280;49699;48.072;7.800;2023-03-14T03:32:22;97798.94;;;10.78;64.96
63554;BME280;49699;48.072;7.800;2023-03-14T03:34:48;97797.41;;;10.75;65.27
63554;BME280;49699;48.072;7.800;2023-03-14T03:37:14;97778.53;;;10.73;64.96
63554;BME280;49699;48.072;7.800;2023-03-14T03:39:40;97779.50;;;10.72;64.93
63554;BME280;49699;48.072;7.800;2023-03-14T03:42:06;97772.91;;;10.68;64.95
63554;BME280;49699;48.072;7.800;2023-03-14T03:44:31;97752.34;;;10.65;65.44
63554;BME280;49699;48.072;7.800;2023-03-14T03:46:56;97749.97;;;10.62;64.95
63554;BME280;49699;48.072;7.800;2023-03-14T03:49:22;97758.47;;;10.64;65.04
63554;BME280;49699;48.072;7.800;2023-03-14T03:51:47;97755.06;;;10.64;64.66
63554;BME280;49699;48.072;7.800;2023-03-14T03:54:13;97747.38;;;10.62;64.88
63554;BME280;49699;48.072;7.800;2023-03-14T03:56:38;97745.84;;;10.60;64.92
63554;BME280;49699;48.072;7.800;2023-03-14T03:59:05;97744.34;;;10.57;65.21
63554;BME280;49699;48.072;7.800;2023-03-14T04:01:30;97737.75;;;10.53;65.23
63554;BME280;49699;48.072;7.800;2023-03-14T04:03:57;97742.16;;;10.53;65.34
63554;BME280;49699;48.072;7.800;2023-03-14T04:06:23;97737.19;;;10.50;65.68
63554;BME280;49699;48.072;7.800;2023-03-14T04:08:53;97734.72;;;10.48;65.50
63554;BME280;49699;48.072;7.800;2023-03-14T04:11:29;97734.16;;;10.44;65.64
63554;BME280;49699;48.072;7.800;2023-03-14T04:14:18;97733.31;;;10.44;66.01
63554;BME280;49699;48.072;7.800;2023-03-14T04:16:43;97732.50;;;10.43;65.71
63554;BME280;49699;48.072;7.800;2023-03-14T04:19:13;97730.72;;;10.44;65.22
63554;BME280;49699;48.072;7.800;2023-03-14T04:21:39;97722.09;;;10.43;65.23
63554;BME280;49699;48.072;7.800;2023-03-14T04:24:12;97715.00;;;10.46;65.48
63554;BME280;49699;48.072;7.800;2023-03-14T04:26:39;97702.13;;;10.44;65.02
63554;BME280;49699;48.072;7.800;2023-03-14T04:29:04;97706.50;;;10.43;65.15
63554;BME280;49699;48.072;7.800;2023-03-14T04:31:30;97706.50;;;10.43;64.65
63554;BME280;49699;48.072;7.800;2023-03-14T04:33:55;97702.25;;;10.42;64.99
63554;BME280;49699;48.072;7.800;2023-03-14T04:36:28;97694.31;;;10.44;64.62
63554;BME280;49699;48.072;7.800;2023-03-14T04:38:54;97695.97;;;10.45;64.27
63554;BME280;49699;48.072;7.800;2023-03-14T04:41:20;97706.38;;;10.45;64.32
63554;BME280;49699;48.072;7.800;2023-03-14T04:43:46;97702.13;;;10.44;64.21
63554;BME280;49699;48.072;7.800;2023-03-14T04:46:12;97702.13;;;10.44;64.35
63554;BME280;49699;48.072;7.800;2023-03-14T04:48:38;97684.84;;;10.43;64.02
63554;BME280;49699;48.072;7.800;2023-03-14T04:51:04;97695.25;;;10.43;64.12
63554;BME280;49699;48.072;7.800;2023-03-14T04:53:32;97698.00;;;10.41;63.93
63554;BME280;49699;48.072;7.800;2023-03-14T04:55:58;97676.34;;;10.41;64.12
63554;BME280;49699;48.072;7.800;2023-03-14T04:58:29;97678.28;;;10.39;64.20
63554;BME280;49699;48.072;7.800;2023-03-14T05:01:00;97674.16;;;10.36;63.88
63554;BME280;49699;48.072;7.800;2023-03-14T05:03:45;97665.81;;;10.33;64.33
63554;BME280;49699;48.072;7.800;2023-03-14T05:06:29;97656.47;;;10.30;64.17
63554;BME280;49699;48.072;7.800;2023-03-14T05:09:29;97651.16;;;10.32;64.04
63554;BME280;49699;48.072;7.800;2023-03-14T05:11:57;97663.44;;;10.30;64.40
63554;BME280;49699;48.072;7.800;2023-03-14T05:14:32;97667.00;;;10.29;64.46
63554;BME280;49699;48.072;7.800;2023-03-14T05:17:10;97661.09;;;10.27;64.41
63554;BME280;49699;48.072;7.800;2023-03-14T05:19:53;97661.94;;;10.27;64.68
63554;BME280;49699;48.072;7.800;2023-03-14T05:22:49;97658.50;;;10.27;64.70
63554;BME280;49699;48.072;7.800;2023-03-14T05:25:28;97664.28;;;10.30;63.98
63554;BME280;49699;48.072;7.800;2023-03-14T05:28:09;97653.75;;;10.32;64.10
63554;BME280;49699;48.072;7.800;2023-03-14T05:30:53;97637.19;;;10.33;64.08
63554;BME280;49699;48.072;7.800;2023-03-14T05:33:38;97640.63;;;10.33;64.33
63554;BME280;49699;48.072;7.800;2023-03-14T05:36:23;97638.97;;;10.32;63.94
63554;BME280;49699;48.072;7.800;2023-03-14T05:39:06;97637.31;;;10.31;64.26
63554;BME280;49699;48.072;7.800;2023-03-14T05:41:52;97631.31;;;10.31;64.19
63554;BME280;49699;48.072;7.800;2023-03-14T05:44:22;97626.09;;;10.31;63.93
63554;BME280;49699;48.072;7.800;2023-03-14T05:47:06;97630.34;;;10.32;64.10
63554;BME280;49699;48.072;7.800;2023-03-14T05:49:45;97616.41;;;10.33;63.69
63554;BME280;49699;48.072;7.800;2023-03-14T05:52:37;97631.75;;;10.36;63.67
63554;BME280;49699;48.072;7.800;2023-03-14T05:55:30;97623.00;;;10.37;63.40
63554;BME280;49699;48.072;7.800;2023-03-14T05:58:24;97617.78;;;10.37;63.89
63554;BME280;49699;48.072;7.800;2023-03-14T06:01:08;97622.03;;;10.38;63.36
63554;BME280;49699;48.072;7.800;2023-03-14T06:03:53;97615.88;;;10.39;63.51
63554;BME280;49699;48.072;7.800;2023-03-14T06:06:19;97615.72;;;10.40;63.30
63554;BME280;49699;48.072;7.800;2023-03-14T06:08:44;97612.16;;;10.41;63.09
63554;BME280;49699;48.072;7.800;2023-03-14T06:11:10;97605.06;;;10.43;62.86
63554;BME280;49699;48.072;7.800;2023-03-14T06:13:35;97604.09;;;10.44;62.79
63554;BME280;49699;48.072;7.800;2023-03-14T06:16:01;97602.34;;;10.45;62.87
63554;BME280;49699;48.072;7.800;2023-03-14T06:18:27;97611.53;;;10.49;62.68
63554;BME280;49699;48.072;7.800;2023-03-14T06:20:53;97619.91;;;10.53;62.03
63554;BME280;49699;48.072;7.800;2023-03-14T06:23:23;97620.47;;;10.56;62.39
63554;BME280;49699;48.072;7.800;2023-03-14T06:25:49;97620.28;;;10.58;62.08
63554;BME280;49699;48.072;7.800;2023-03-14T06:28:14;97624.69;;;10.57;62.06
63554;BME280;49699;48.072;7.800;2023-03-14T06:30:40;97623.72;;;10.58;62.47
63554;BME280;49699;48.072;7.800;2023-03-14T06:33:07;97621.00;;;10.60;62.19
63554;BME280;49699;48.072;7.800;2023-03-14T06:35:33;97612.22;;;10.61;62.08
63554;BME280;49699;48.072;7.800;2023-03-14T06:37:58;97624.03;;;10.65;62.03
63554;BME280;49699;48.072;7.800;2023-03-14T06:40:23;97620.47;;;10.66;61.98
63554;BME280;49699;48.072;7.800;2023-03-14T06:42:53;97631.56;;;10.68;61.85
63554;BME280;49699;48.072;7.800;2023-03-14T06:45:20;97626.94;;;10.71;62.24
63554;BME280;49699;48.072;7.800;2023-03-14T06:47:46;97637.09;;;10.74;61.91
63554;BME280;49699;48.072;7.800;2023-03-14T06:50:12;97633.38;;;10.77;62.17
63554;BME280;49699;48.072;7.800;2023-03-14T06:52:38;97634.88;;;10.79;61.86
63554;BME280;49699;48.072;7.800;2023-03-14T06:55:12;97630.38;;;10.82;62.15
63554;BME280;49699;48.072;7.800;2023-03-14T06:57:37;97633.66;;;10.84;61.84
63554;BME280;49699;48.072;7.800;2023-03-14T07:00:03;97633.53;;;10.85;61.87
63554;BME280;49699;48.072;7.800;2023-03-14T07:02:29;97636.00;;;10.87;61.93
63554;BME280;49699;48.072;7.800;2023-03-14T07:04:54;97632.44;;;10.88;61.83
63554;BME280;49699;48.072;7.800;2023-03-14T07:07:20;97626.28;;;10.89;61.91
63554;BME280;49699;48.072;7.800;2023-03-14T07:09:45;97641.78;;;10.90;62.11
63554;BME280;49699;48.072;7.800;2023-03-14T07:12:10;97636.44;;;10.92;62.31
63554;BME280;49699;48.072;7.800;2023-03-14T07:14:36;97629.28;;;10.94;61.88
63554;BME280;49699;48.072;7.800;2023-03-14T07:17:01;97628.88;;;10.98;61.82
63554;BME280;49699;48.072;7.800;2023-03-14T07:19:26;97644.81;;;11.05;61.82
63554;BME280;49699;48.072;7.800;2023-03-14T07:21:52;97652.34;;;11.08;61.74
63554;BME280;49699;48.072;7.800;2023-03-14T07:24:21;97649.31;;;11.12;61.59
63554;BME280;49699;48.072;7.800;2023-03-14T07:26:48;97650.69;;;11.17;61.52
63554;BME280;49699;48.072;7.800;2023-03-14T07:29:13;97661.81;;;11.19;61.21
63554;BME280;49699;48.072;7.800;2023-03-14T07:31:40;97658.13;;;11.21;61.42
63554;BME280;49699;48.072;7.800;2023-03-14T07:34:05;97662.25;;;11.24;61.58
63554;BME280;49699;48.072;7.800;2023-03-14T07:36:35;97654.28;;;11.25;61.54
63554;BME280;49699;48.072;7.800;2023-03-14T07:39:01;97662.94;;;11.26;61.32
63554;BME280;49699;48.072;7.800;2023-03-14T07:41:38;97661.00;;;11.28;60.73
63554;BME280;49699;48.072;7.800;2023-03-14T07:44:23;97674.28;;;11.34;60.80
63554;BME280;49699;48.072;7.800;2023-03-14T07:46:48;97670.59;;;11.37;60.56
63554;BME280;49699;48.072;7.800;2023-03-14T07:49:13;97678.16;;;11.40;60.26
63554;BME280;49699;48.072;7.800;2023-03-14T07:51:39;97677.06;;;11.42;60.07
63554;BME280;49699;48.072;7.800;2023-03-14T07:54:04;97681.31;;;11.43;60.18
63554;BME280;49699;48.072;7.800;2023-03-14T07:56:29;97690.63;;;11.46;60.25
63554;BME280;49699;48.072;7.800;2023-03-14T07:58:55;97678.56;;;11.45;60.02
63554;BME280;49699;48.072;7.800;2023-03-14T08:01:20;97692.41;;;11.45;60.25
63554;BME280;49699;48.072;7.800;2023-03-14T08:03:45;97684.44;;;11.47;60.19
63554;BME280;49699;48.072;7.800;2023-03-14T08:06:10;97690.63;;;11.46;60.50
63554;BME280;49699;48.072;7.800;2023-03-14T08:08:36;97687.88;;;11.47;60.55
63554;BME280;49699;48.072;7.800;2023-03-14T08:11:02;97697.63;;;11.45;60.93
63554;BME280;49699;48.072;7.800;2023-03-14T08:13:28;97716.00;;;11.44;61.03
63554;BME280;49699;48.072;7.800;2023-03-14T08:15:53;97703.25;;;11.41;61.45
63554;BME280;49699;48.072;7.800;2023-03-14T08:18:18;97697.47;;;11.37;61.72
63554;BME280;49699;48.072;7.800;2023-03-14T08:20:44;97710.75;;;11.34;61.68
63554;BME280;49699;48.072;7.800;2023-03-14T08:23:09;97708.56;;;11.30;62.24
63554;BME280;49699;48.072;7.800;2023-03-14T08:25:34;97711.44;;;11.27;62.36
63554;BME280;49699;48.072;7.800;2023-03-14T08:28:00;97711.16;;;11.20;62.90
63554;BME280;49699;48.072;7.800;2023-03-14T08:30:25;97719.78;;;11.21;62.85
63554;BME280;49699;48.072;7.800;2023-03-14T08:32:50;97732.81;;;11.21;63.12
63554;BME280;49699;48.072;7.800;2023-03-14T08:35:15;97725.81;;;11.21;63.38
63554;BME280;49699;48.072;7.800;2023-03-14T08:37:41;97729.94;;;11.24;63.29
63554;BME280;49699;48.072;7.800;2023-03-14T08:40:06;97734.06;;;11.26;63.48
63554;BME280;49699;48.072;7.800;2023-03-14T08:42:33;97727.59;;;11.30;63.70
63554;BME280;49699;48.072;7.800;2023-03-14T08:44:59;97734.06;;;11.36;63.79
63554;BME280;49699;48.072;7.800;2023-03-14T08:47:24;97730.13;;;11.41;63.50
63554;BME280;49699;48.072;7.800;2023-03-14T08:49:49;97744.09;;;11.50;63.38
63554;BME280;49699;48.072;7.800;2023-03-14T08:52:14;97741.91;;;11.55;63.46
63554;BME280;49699;48.072;7.800;2023-03-14T08:54:41;97744.69;;;11.63;63.46
63554;BME280;49699;48.072;7.800;2023-03-14T08:57:07;97736.44;;;11.68;63.40
63554;BME280;49699;48.072;7.800;2023-03-14T08:59:32;97737.00;;;11.71;63.27
63554;BME280;49699;48.072;7.800;2023-03-14T09:01:57;97741.09;;;11.74;63.12
63554;BME280;49699;48.072;7.800;2023-03-14T09:04:22;97745.94;;;11.78;63.01
63554;BME280;49699;48.072;7.800;2023-03-14T09:06:48;97742.09;;;11.82;62.80
63554;BME280;49699;48.072;7.800;2023-03-14T09:09:13;97745.25;;;11.86;62.41
63554;BME280;49699;48.072;7.800;2023-03-14T09:11:39;97737.84;;;11.91;62.05
63554;BME280;49699;48.072;7.800;2023-03-14T09:14:04;97751.31;;;11.96;61.63
63554;BME280;49699;48.072;7.800;2023-03-14T09:16:29;97742.22;;;12.00;61.18
63554;BME280;49699;48.072;7.800;2023-03-14T09:18:55;97750.72;;;12.02;60.97
63554;BME280;49699;48.072;7.800;2023-03-14T09:21:22;97747.97;;;12.04;60.71
63554;BME280;49699;48.072;7.800;2023-03-14T09:23:48;97745.50;;;12.02;60.08
63554;BME280;49699;48.072;7.800;2023-03-14T09:26:13;97757.22;;;11.98;60.05
63554;BME280;49699;48.072;7.800;2023-03-14T09:28:39;97734.28;;;11.92;60.11
63554;BME280;49699;48.072;7.800;2023-03-14T09:31:05;97742.50;;;11.88;59.89
63554;BME280;49699;48.072;7.800;2023-03-14T09:33:30;97739.34;;;11.84;60.15
63554;BME280;49699;48.072;7.800;2023-03-14T09:35:57;97738.25;;;11.77;60.46
63554;BME280;49699;48.072;7.800;2023-03-14T09:38:23;97747.03;;;11.76;60.61
63554;BME280;49699;48.072;7.800;2023-03-14T09:40:48;97746.44;;;11.72;60.76
63554;BME280;49699;48.072;7.800;2023-03-14T09:43:14;97738.09;;;11.69;61.04
63554;BME280;49699;48.072;7.800;2023-03-14T09:45:41;97745.75;;;11.70;60.68
63554;BME280;49699;48.072;7.800;2023-03-14T09:48:12;97750.16;;;11.70;60.63
63554;BME280;49699;48.072;7.800;2023-03-14T09:50:43;97744.94;;;11.70;60.51
63554;BME280;49699;48.072;7.800;2023-03-14T09:53:12;97746.03;;;11.67;60.88
63554;BME280;49699;48.072;7.800;2023-03-14T09:55:41;97756.19;;;11.61;61.18
63554;BME280;49699;48.072;7.800;2023-03-14T09:58:11;97747.94;;;11.56;61.30
63554;BME280;49699;48.072;7.800;2023-03-14T10:00:37;97758.91;;;11.49;62.45
63554;BME280;49699;48.072;7.800;2023-03-14T10:05:36;97757.13;;;11.40;62.88
63554;BME280;49699;48.072;7.800;2023-03-14T10:08:02;97761.63;;;11.38;63.02
63554;BME280;49699;48.072;7.800;2023-03-14T10:10:27;97765.47;;;11.34;63.76
63554;BME280;49699;48.072;7.800;2023-03-14T10:15:26;97769.16;;;11.32;64.53
63554;BME280;49699;48.072;7.800;2023-03-14T10:17:51;97777.53;;;11.35;64.73
63554;BME280;49699;48.072;7.800;2023-03-14T10:23:40;97784.56;;;11.44;65.18
63554;BME280;49699;48.072;7.800;2023-03-14T10:25:58;97762.75;;;11.45;64.90
63554;BME280;49699;48.072;7.800;2023-03-14T10:28:30;97786.34;;;11.44;65.16
63554;BME280;49699;48.072;7.800;2023-03-14T10:30:56;97780.31;;;11.43;66.14
63554;BME280;49699;48.072;7.800;2023-03-14T10:38:22;97805.47;;;11.33;67.60
63554;BME280;49699;48.072;7.800;2023-03-14T10:40:50;97797.94;;;11.30;67.64
63554;BME280;49699;48.072;7.800;2023-03-14T10:43:30;97812.72;;;11.30;68.08
63554;BME280;49699;48.072;7.800;2023-03-14T10:45:57;97821.38;;;11.30;68.27
63554;BME280;49699;48.072;7.800;2023-03-14T10:53:22;97841.09;;;11.23;68.49
63554;BME280;49699;48.072;7.800;2023-03-14T10:55:48;97846.81;;;11.17;68.88
63554;BME280;49699;48.072;7.800;2023-03-14T10:58:18;97855.97;;;11.11;68.95
63554;BME280;49699;48.072;7.800;2023-03-14T11:00:44;97865.84;;;11.08;69.46
63554;BME280;49699;48.072;7.800;2023-03-14T11:03:11;97864.44;;;11.04;69.61
63554;BME280;49699;48.072;7.800;2023-03-14T11:05:46;97880.19;;;11.02;69.61
63554;BME280;49699;48.072;7.800;2023-03-14T11:08:29;97895.81;;;11.02;70.02
63554;BME280;49699;48.072;7.800;2023-03-14T11:11:29;97891.41;;;11.03;70.18
63554;BME280;49699;48.072;7.800;2023-03-14T11:13:52;97905.50;;;11.00;71.35
63554;BME280;49699;48.072;7.800;2023-03-14T11:19:03;97888.63;;;10.95;72.39
63554;BME280;49699;48.072;7.800;2023-03-14T11:21:38;97918.38;;;10.92;72.56
63554;BME280;49699;48.072;7.800;2023-03-14T11:24:12;97948.56;;;10.84;73.64
63554;BME280;49699;48.072;7.800;2023-03-14T11:26:48;97998.31;;;10.69;74.57
63554;BME280;49699;48.072;7.800;2023-03-14T11:31:45;98038.25;;;10.25;75.44
63554;BME280;49699;48.072;7.800;2023-03-14T11:34:15;98051.34;;;9.90;73.42
63554;BME280;49699;48.072;7.800;2023-03-14T11:36:42;98060.53;;;9.61;70.87
63554;BME280;49699;48.072;7.800;2023-03-14T11:39:11;98077.38;;;9.44;66.25
63554;BME280;49699;48.072;7.800;2023-03-14T11:41:39;98078.28;;;9.32;64.17
63554;BME280;49699;48.072;7.800;2023-03-14T11:44:48;98098.34;;;9.30;64.74
63554;BME280;49699;48.072;7.800;2023-03-14T11:47:05;98110.50;;;9.29;63.82
63554;BME280;49699;48.072;7.800;2023-03-14T11:49:40;98116.41;;;9.31;61.87
63554;BME280;49699;48.072;7.800;2023-03-14T11:52:09;98143.78;;;9.35;60.99
63554;BME280;49699;48.072;7.800;2023-03-14T11:54:40;98139.00;;;9.42;60.67
63554;BME280;49699;48.072;7.800;2023-03-14T11:57:12;98155.09;;;9.58;61.00
63554;BME280;49699;48.072;7.800;2023-03-14T11:59:42;98153.72;;;9.77;59.48
63554;BME280;49699;48.072;7.800;2023-03-14T12:02:22;98161.09;;;9.94;59.25
63554;BME280;49699;48.072;7.800;2023-03-14T12:07:39;98197.22;;;10.21;57.30
63554;BME280;49699;48.072;7.800;2023-03-14T12:10:07;98196.63;;;10.28;56.64
63554;BME280;49699;48.072;7.800;2023-03-14T12:12:33;98211.78;;;10.34;56.34
63554;BME280;49699;48.072;7.800;2023-03-14T12:14:59;98219.25;;;10.39;55.38
63554;BME280;49699;48.072;7.800;2023-03-14T12:17:35;98241.22;;;10.46;55.26
63554;BME280;49699;48.072;7.800;2023-03-14T12:23:21;98253.16;;;10.60;54.21
63554;BME280;49699;48.072;7.800;2023-03-14T12:25:28;98263.72;;;10.69;53.84
63554;BME280;49699;48.072;7.800;2023-03-14T12:36:10;98298.50;;;10.91;52.44
63554;BME280;49699;48.072;7.800;2023-03-14T12:38:37;98291.66;;;10.90;53.09
63554;BME280;49699;48.072;7.800;2023-03-14T12:41:28;98299.09;;;11.05;52.28
63554;BME280;49699;48.072;7.800;2023-03-14T12:43:54;98311.75;;;11.21;51.52
63554;BME280;49699;48.072;7.800;2023-03-14T12:46:21;98306.53;;;11.32;51.92
63554;BME280;49699;48.072;7.800;2023-03-14T12:48:47;98281.53;;;11.41;51.94
63554;BME280;49699;48.072;7.800;2023-03-14T12:51:17;98310.66;;;11.35;49.61
63554;BME280;49699;48.072;7.800;2023-03-14T12:53:52;98318.50;;;11.24;49.45
63554;BME280;49699;48.072;7.800;2023-03-14T12:56:21;98347.75;;;11.05;50.35
63554;BME280;49699;48.072;7.800;2023-03-14T12:58:58;98340.28;;;10.89;50.73
63554;BME280;49699;48.072;7.800;2023-03-14T13:01:27;98361.88;;;10.67;50.87
63554;BME280;49699;48.072;7.800;2023-03-14T13:03:54;98371.78;;;10.51;51.19
63554;BME280;49699;48.072;7.800;2023-03-14T13:09:34;98388.38;;;10.14;52.36
63554;BME280;49699;48.072;7.800;2023-03-14T13:12:13;98383.56;;;9.96;53.30
63554;BME280;49699;48.072;7.800;2023-03-14T13:14:49;98404.03;;;10.01;53.54
63554;BME280;49699;48.072;7.800;2023-03-14T13:17:15;98408.00;;;9.94;54.57
63554;BME280;49699;48.072;7.800;2023-03-14T13:19:44;98417.88;;;9.89;55.24
63554;BME280;49699;48.072;7.800;2023-03-14T13:22:16;98426.13;;;9.83;55.06
63554;BME280;49699;48.072;7.800;2023-03-14T13:24:44;98430.31;;;9.72;54.79
63554;BME280;49699;48.072;7.800;2023-03-14T13:27:19;98442.91;;;9.66;54.76
63554;BME280;49699;48.072;7.800;2023-03-14T13:29:48;98449.97;;;9.64;54.14
63554;BME280;49699;48.072;7.800;2023-03-14T13:32:19;98445.81;;;9.61;52.82
63554;BME280;49699;48.072;7.800;2023-03-14T13:34:45;98456.09;;;9.63;52.01
63554;BME280;49699;48.072;7.800;2023-03-14T13:37:29;98454.53;;;9.60;50.17
63554;BME280;49699;48.072;7.800;2023-03-14T13:39:55;98453.09;;;9.56;50.61
63554;BME280;49699;48.072;7.800;2023-03-14T13:42:21;98461.19;;;9.52;50.71
63554;BME280;49699;48.072;7.800;2023-03-14T13:44:49;98465.78;;;9.48;50.52
63554;BME280;49699;48.072;7.800;2023-03-14T13:47:17;98466.00;;;9.45;50.85
63554;BME280;49699;48.072;7.800;2023-03-14T13:49:43;98460.91;;;9.44;50.82
63554;BME280;49699;48.072;7.800;2023-03-14T13:52:27;98475.66;;;9.43;51.60
63554;BME280;49699;48.072;7.800;2023-03-14T13:54:56;98477.31;;;9.44;50.80